createdAt,value
2019-04-05T00:01:12.124Z,28.40
2019-04-05T00:03:40.531Z,28.98
2019-04-05T00:06:09.152Z,31.52
2019-04-05T00:08:37.779Z,28.00
2019-04-05T00:11:06.337Z,30.62
2019-04-05T00:13:34.753Z,33.18
2019-04-05T00:16:03.136Z,27.90
2019-04-05T00:18:31.532Z,30.15
2019-04-05T00:20:59.912Z,34.38
2019-04-05T00:23:28.536Z,32.80
2019-04-05T00:25:58.716Z,32.53
2019-04-05T00:28:27.352Z,30.62
2019-04-05T00:30:55.752Z,31.65
2019-04-05T00:33:24.134Z,32.08
2019-04-05T00:35:52.761Z,31.20
2019-04-05T00:38:21.145Z,34.40
2019-04-05T00:40:49.540Z,36.88
2019-04-05T00:43:17.936Z,34.25
2019-04-05T00:45:46.514Z,31.50
2019-04-05T00:48:14.892Z,30.50
2019-04-05T00:50:43.299Z,31.90
2019-04-05T00:53:11.699Z,30.08
2019-04-05T00:55:40.160Z,34.85
2019-04-05T00:58:08.566Z,34.73
2019-04-05T01:00:37.037Z,33.40
2019-04-05T01:03:05.427Z,40.70
2019-04-05T01:05:33.994Z,31.17
2019-04-05T01:08:02.371Z,31.23
2019-04-05T01:10:30.844Z,35.92
2019-04-05T01:12:59.729Z,31.42
2019-04-05T01:15:40.002Z,36.00
2019-04-05T01:17:58.248Z,37.40
2019-04-05T01:20:28.656Z,37.48
2019-04-05T01:22:58.880Z,35.05
2019-04-05T01:25:28.151Z,36.98
2019-04-05T01:27:56.629Z,35.33
2019-04-05T01:30:25.030Z,33.45
2019-04-05T01:32:53.649Z,34.67
2019-04-05T01:35:22.038Z,39.00
2019-04-05T01:37:51.108Z,33.67
2019-04-05T01:40:19.511Z,31.05
2019-04-05T01:42:48.342Z,36.33
2019-04-05T01:45:16.740Z,34.45
2019-04-05T01:47:45.144Z,36.65
2019-04-05T01:50:14.316Z,35.70
2019-04-05T01:52:42.896Z,36.42
2019-04-05T01:55:11.527Z,36.55
2019-04-05T01:57:39.918Z,34.90
2019-04-05T02:00:10.718Z,35.52
2019-04-05T02:02:39.245Z,39.27
2019-04-05T02:05:09.173Z,37.15
2019-04-05T02:07:38.523Z,37.45
2019-04-05T02:10:08.610Z,41.10
2019-04-05T02:12:37.477Z,41.10
2019-04-05T02:15:08.196Z,41.48
2019-04-05T02:17:36.943Z,43.92
2019-04-05T02:20:09.936Z,43.68
2019-04-05T02:22:38.342Z,38.42
2019-04-05T02:25:07.454Z,39.73
2019-04-05T02:27:35.917Z,44.80
2019-04-05T02:30:06.166Z,44.13
2019-04-05T02:32:34.549Z,45.05
2019-04-05T02:35:03.015Z,39.92
2019-04-05T02:37:31.422Z,44.95
2019-04-05T02:39:59.860Z,43.02
2019-04-05T02:42:29.417Z,42.60
2019-04-05T02:44:59.865Z,40.75
2019-04-05T02:47:28.910Z,40.90
2019-04-05T02:49:58.339Z,38.00
2019-04-05T02:52:28.282Z,34.03
2019-04-05T02:54:57.809Z,46.28
2019-04-05T02:57:27.145Z,42.80
2019-04-05T02:59:55.871Z,47.10
2019-04-05T03:02:25.260Z,40.83
2019-04-05T03:04:53.646Z,41.48
2019-04-05T03:07:22.113Z,38.15
2019-04-05T03:09:50.893Z,36.45
2019-04-05T03:12:19.760Z,40.08
2019-04-05T03:14:48.581Z,44.30
2019-04-05T03:17:17.414Z,41.23
2019-04-05T03:19:48.256Z,42.38
2019-04-05T03:22:16.909Z,43.68
2019-04-05T03:24:46.450Z,39.33
2019-04-05T03:27:17.914Z,43.07
2019-04-05T03:29:46.530Z,32.95
2019-04-05T03:32:15.654Z,45.55
2019-04-05T03:34:44.290Z,32.73
2019-04-05T03:37:13.621Z,37.20
2019-04-05T03:39:42.553Z,42.43
2019-04-05T03:42:11.395Z,39.45
2019-04-05T03:44:40.123Z,34.00
2019-04-05T03:47:08.997Z,43.10
2019-04-05T03:49:37.457Z,38.70
2019-04-05T03:52:06.481Z,30.43
2019-04-05T03:54:35.253Z,38.50
2019-04-05T03:57:04.379Z,39.10
2019-04-05T03:59:32.783Z,36.08
2019-04-05T04:02:01.241Z,42.70
2019-04-05T04:04:30.173Z,35.98
2019-04-05T04:06:58.705Z,36.42
2019-04-05T04:09:27.181Z,38.45
2019-04-05T04:11:55.635Z,41.05
2019-04-05T04:14:24.112Z,34.67
2019-04-05T04:16:53.236Z,42.73
2019-04-05T04:19:21.788Z,28.32
2019-04-05T04:22:07.916Z,43.10
2019-04-05T04:24:37.461Z,38.35
2019-04-05T04:27:05.850Z,36.87
2019-04-05T04:29:34.257Z,44.73
2019-04-05T04:32:02.813Z,37.65
2019-04-05T04:34:31.984Z,32.25
2019-04-05T04:37:00.543Z,39.20
2019-04-05T04:39:29.288Z,38.28
2019-04-05T04:41:58.365Z,42.53
2019-04-05T04:44:26.764Z,41.08
2019-04-05T04:46:55.157Z,39.90
2019-04-05T04:49:25.335Z,38.33
2019-04-05T04:51:55.013Z,41.48
2019-04-05T04:54:23.484Z,40.92
2019-04-05T04:56:53.468Z,44.15
2019-04-05T04:59:23.268Z,36.00
2019-04-05T05:01:51.755Z,43.87
2019-04-05T05:04:20.209Z,46.88
2019-04-05T05:06:48.761Z,38.83
2019-04-05T05:09:17.148Z,43.90
2019-04-05T05:11:45.531Z,36.10
2019-04-05T05:14:14.204Z,42.13
2019-04-05T05:16:42.651Z,39.73
2019-04-05T05:19:12.784Z,44.10
2019-04-05T05:21:41.176Z,39.35
2019-04-05T05:24:10.365Z,38.38
2019-04-05T05:26:38.915Z,44.90
2019-04-05T05:29:07.795Z,40.20
2019-04-05T05:31:36.494Z,36.33
2019-04-05T05:34:06.417Z,45.17
2019-04-05T05:36:35.651Z,41.80
2019-04-05T05:39:06.648Z,42.90
2019-04-05T05:41:35.077Z,46.95
2019-04-05T05:44:03.522Z,43.60
2019-04-05T05:46:31.992Z,38.35
2019-04-05T05:49:00.397Z,43.70
2019-04-05T05:51:29.376Z,40.50
2019-04-05T05:53:57.828Z,45.35
2019-04-05T05:56:26.318Z,44.55
2019-04-05T05:58:58.856Z,38.63
2019-04-05T06:01:24.816Z,43.45
2019-04-05T06:03:53.192Z,38.90
2019-04-05T06:06:22.891Z,42.35
2019-04-05T06:08:51.296Z,46.77
2019-04-05T06:11:19.698Z,46.18
2019-04-05T06:13:48.089Z,45.45
2019-04-05T06:16:16.483Z,34.43
2019-04-05T06:18:44.874Z,46.33
2019-04-05T06:21:13.267Z,46.77
2019-04-05T06:23:41.662Z,42.65
2019-04-05T06:26:10.083Z,43.13
2019-04-05T06:28:39.621Z,39.85
2019-04-05T06:31:08.124Z,42.23
2019-04-05T06:33:36.518Z,35.10
2019-04-05T06:36:04.908Z,34.08
2019-04-05T06:38:33.300Z,39.08
2019-04-05T06:41:01.697Z,38.02
2019-04-05T06:43:30.319Z,39.58
2019-04-05T06:45:58.831Z,40.92
2019-04-05T06:48:29.291Z,39.40
2019-04-05T06:50:57.616Z,38.23
2019-04-05T06:53:26.021Z,37.35
2019-04-05T06:55:54.400Z,38.33
2019-04-05T06:58:28.919Z,45.90
2019-04-05T07:00:57.182Z,39.65
2019-04-05T07:03:23.054Z,37.23
2019-04-05T07:05:51.431Z,38.40
2019-04-05T07:08:19.841Z,48.20
2019-04-05T07:10:48.321Z,34.88
2019-04-05T07:13:16.723Z,43.70
2019-04-05T07:15:45.132Z,39.30
2019-04-05T07:18:13.550Z,48.65
2019-04-05T07:20:41.933Z,48.83
2019-04-05T07:23:10.332Z,44.38
2019-04-05T07:25:38.734Z,35.50
2019-04-05T07:28:07.120Z,40.55
2019-04-05T07:30:35.577Z,40.45
2019-04-05T07:33:04.217Z,38.55
2019-04-05T07:35:33.952Z,34.20
2019-04-05T07:38:02.680Z,36.95
2019-04-05T07:40:31.151Z,37.50
2019-04-05T07:42:59.548Z,31.95
2019-04-05T07:45:27.940Z,39.53
2019-04-05T07:47:56.340Z,37.95
2019-04-05T07:50:24.728Z,34.05
2019-04-05T07:52:53.360Z,34.18
2019-04-05T07:55:21.761Z,35.38
2019-04-05T07:57:50.154Z,37.17
2019-04-05T08:00:47.268Z,34.15
2019-04-05T08:03:15.728Z,35.23
2019-04-05T08:05:44.761Z,37.90
2019-04-05T08:08:16.234Z,33.60
2019-04-05T08:10:45.969Z,35.43
2019-04-05T08:13:15.470Z,35.90
2019-04-05T08:15:44.030Z,33.53
2019-04-05T08:18:12.441Z,34.92
2019-04-05T08:20:40.823Z,36.38
2019-04-05T08:23:09.236Z,33.85
2019-04-05T08:25:37.641Z,34.40
2019-04-05T08:28:06.786Z,32.80
2019-04-05T08:30:35.305Z,34.10
2019-04-05T08:33:03.924Z,37.80
2019-04-05T08:35:32.316Z,34.85
2019-04-05T08:38:00.707Z,38.00
2019-04-05T08:40:29.102Z,32.42
2019-04-05T08:42:57.497Z,35.33
2019-04-05T08:45:25.889Z,33.80
2019-04-05T08:47:54.296Z,34.33
2019-04-05T08:50:22.685Z,34.85
2019-04-05T08:52:51.082Z,35.83
2019-04-05T08:55:19.478Z,36.83
2019-04-05T08:57:48.196Z,40.15
2019-04-05T09:00:17.077Z,35.20
2019-04-05T09:02:45.512Z,41.20
2019-04-05T09:05:14.014Z,36.70
2019-04-05T09:07:42.407Z,40.70
2019-04-05T09:10:10.809Z,37.98
2019-04-05T09:12:39.202Z,38.92
2019-04-05T09:15:08.036Z,40.75
2019-04-05T09:17:36.425Z,37.83
2019-04-05T09:20:05.898Z,39.33
2019-04-05T09:22:34.365Z,34.40
2019-04-05T09:25:02.817Z,35.43
2019-04-05T09:27:31.220Z,35.08
2019-04-05T09:29:59.620Z,35.15
2019-04-05T09:32:28.019Z,34.88
2019-04-05T09:34:56.423Z,34.43
2019-04-05T09:37:24.820Z,33.08
2019-04-05T09:39:53.651Z,32.17
2019-04-05T09:42:22.082Z,32.75
2019-04-05T09:44:50.482Z,32.45
2019-04-05T09:47:18.869Z,31.52
2019-04-05T09:49:47.273Z,31.33
2019-04-05T09:52:15.660Z,28.47
2019-04-05T09:54:44.069Z,28.52
2019-04-05T09:57:12.696Z,31.50
2019-04-05T09:59:41.335Z,28.73
2019-04-05T10:02:09.962Z,28.92
2019-04-05T10:04:38.371Z,25.40
2019-04-05T10:07:06.825Z,24.15
2019-04-05T10:09:35.224Z,27.02
2019-04-05T10:12:03.794Z,27.60
2019-04-05T10:14:32.192Z,28.47
2019-04-05T10:17:00.604Z,23.77
2019-04-05T10:19:29.033Z,24.43
2019-04-05T10:21:57.448Z,23.90
2019-04-05T10:24:26.049Z,23.55
2019-04-05T10:26:54.456Z,22.42
2019-04-05T10:29:23.083Z,22.25
2019-04-05T10:31:51.496Z,23.80
2019-04-05T10:34:19.903Z,22.02
2019-04-05T10:36:48.328Z,21.52
2019-04-05T10:39:16.730Z,20.75
2019-04-05T10:41:45.131Z,23.83
2019-04-05T10:44:15.294Z,19.48
2019-04-05T10:46:43.706Z,20.88
2019-04-05T10:49:14.944Z,21.10
2019-04-05T10:51:42.232Z,21.80
2019-04-05T10:54:10.617Z,21.73
2019-04-05T10:56:39.026Z,22.60
2019-04-05T10:59:07.419Z,21.87
2019-04-05T11:01:35.825Z,20.90
2019-04-05T11:04:04.219Z,20.37
2019-04-05T11:06:32.645Z,21.65
2019-04-05T11:09:01.044Z,24.85
2019-04-05T11:11:29.462Z,23.27
2019-04-05T11:13:57.884Z,23.38
2019-04-05T11:16:26.308Z,23.95
2019-04-05T11:18:54.691Z,23.40
2019-04-05T11:21:24.428Z,24.80
2019-04-05T11:23:53.625Z,22.00
2019-04-05T11:26:23.190Z,29.23
2019-04-05T11:28:51.784Z,23.27
2019-04-05T11:31:20.413Z,22.70
2019-04-05T11:33:48.968Z,24.87
2019-04-05T11:36:17.637Z,22.93
2019-04-05T11:38:49.986Z,25.27
2019-04-05T11:41:17.737Z,26.60
2019-04-05T11:43:48.065Z,26.48
2019-04-05T11:46:18.263Z,22.15
2019-04-05T11:48:47.732Z,22.42
2019-04-05T11:51:16.148Z,22.75
2019-04-05T11:53:44.559Z,21.40
2019-04-05T11:56:14.956Z,24.00
2019-04-05T11:58:44.827Z,24.30
2019-04-05T12:01:14.958Z,26.93
2019-04-05T12:03:43.361Z,25.72
2019-04-05T12:06:11.768Z,25.05
2019-04-05T12:08:40.444Z,26.40
2019-04-05T12:11:08.798Z,23.77
2019-04-05T12:13:37.794Z,26.50
2019-04-05T12:16:07.282Z,27.95
2019-04-05T12:18:36.386Z,26.73
2019-04-05T12:21:05.764Z,24.57
2019-04-05T12:23:34.280Z,26.20
2019-04-05T12:26:04.787Z,25.70
2019-04-05T12:28:33.056Z,26.45
2019-04-05T12:31:01.482Z,28.45
2019-04-05T12:33:30.138Z,24.30
2019-04-05T12:35:58.558Z,26.97
2019-04-05T12:38:33.709Z,26.20
2019-04-05T12:41:03.236Z,27.60
2019-04-05T12:43:31.895Z,26.45
2019-04-05T12:46:00.299Z,26.70
2019-04-05T12:48:28.737Z,25.60
2019-04-05T12:51:01.311Z,28.35
2019-04-05T12:53:29.542Z,26.27
2019-04-05T12:55:57.934Z,25.08
2019-04-05T12:58:26.749Z,27.62
2019-04-05T13:00:56.213Z,31.70
2019-04-05T13:03:25.509Z,28.45
2019-04-05T13:05:56.828Z,28.20
2019-04-05T13:08:24.041Z,29.70
2019-04-05T13:10:55.524Z,30.23
2019-04-05T13:13:22.598Z,29.65
2019-04-05T13:15:52.979Z,31.27
2019-04-05T13:18:21.387Z,26.80
2019-04-05T13:20:49.772Z,29.48
2019-04-05T13:23:18.180Z,30.82
2019-04-05T13:25:46.570Z,32.73
2019-04-05T13:28:18.633Z,29.02
2019-04-05T13:30:48.243Z,28.67
2019-04-05T13:33:17.093Z,28.52
2019-04-05T13:35:45.492Z,29.87
2019-04-05T13:38:13.896Z,27.82
2019-04-05T13:40:42.288Z,39.33
2019-04-05T13:43:10.705Z,30.25
2019-04-05T13:45:39.137Z,31.65
2019-04-05T13:48:09.013Z,35.38
2019-04-05T13:50:41.377Z,31.10
2019-04-05T13:55:35.932Z,33.10
2019-04-05T13:58:04.402Z,30.37
2019-04-05T14:00:32.796Z,32.55
2019-04-05T14:03:01.428Z,33.05
2019-04-05T14:05:30.061Z,35.50
2019-04-05T14:08:09.909Z,35.33
2019-04-05T14:10:28.589Z,36.30
2019-04-05T14:12:56.997Z,34.30
2019-04-05T14:15:25.409Z,31.35
2019-04-05T14:17:53.788Z,34.60
2019-04-05T14:20:24.417Z,39.60
2019-04-05T14:22:52.443Z,35.43
2019-04-05T14:25:20.871Z,32.95
2019-04-05T14:27:49.277Z,33.83
2019-04-05T14:30:18.048Z,34.03
2019-04-05T14:32:46.445Z,33.88
2019-04-05T14:35:14.922Z,35.98
2019-04-05T14:37:43.317Z,39.08
2019-04-05T14:40:14.266Z,32.23
2019-04-05T14:42:44.891Z,34.15
2019-04-05T14:45:13.624Z,36.85
2019-04-05T14:47:42.116Z,39.48
2019-04-05T14:50:11.725Z,39.27
2019-04-05T14:52:40.125Z,36.63
2019-04-05T14:55:08.609Z,34.03
2019-04-05T14:57:37.011Z,36.63
2019-04-05T15:00:07.600Z,38.42
2019-04-05T15:05:04.699Z,39.27
2019-04-05T15:07:33.098Z,33.05
2019-04-05T15:10:03.681Z,37.23
2019-04-05T15:12:31.622Z,33.67
2019-04-05T15:15:00.012Z,31.73
2019-04-05T15:17:28.441Z,34.67
2019-04-05T15:19:56.832Z,37.78
2019-04-05T15:22:27.577Z,35.48
2019-04-05T15:24:55.369Z,35.73
2019-04-05T15:27:23.813Z,40.35
2019-04-05T15:29:55.317Z,39.78
2019-04-05T15:32:25.471Z,34.25
2019-04-05T15:34:54.468Z,34.25
2019-04-05T15:37:22.863Z,37.58
2019-04-05T15:39:51.256Z,53.45
2019-04-05T15:42:19.666Z,50.38
2019-04-05T15:44:48.068Z,35.55
2019-04-05T15:47:16.469Z,33.35
2019-04-05T15:49:44.864Z,35.92
2019-04-05T15:52:19.128Z,36.23
2019-04-05T15:54:43.636Z,38.55
2019-04-05T15:57:12.067Z,38.10
2019-04-05T15:59:40.539Z,36.98
2019-04-05T16:02:08.951Z,36.53
2019-04-05T16:04:37.344Z,35.38
2019-04-05T16:07:05.890Z,36.48
2019-04-05T16:09:34.390Z,40.65
2019-04-05T16:12:02.818Z,38.83
2019-04-05T16:14:31.432Z,38.02
2019-04-05T16:16:59.849Z,36.63
2019-04-05T16:19:28.299Z,40.88
2019-04-05T16:21:56.688Z,41.45
2019-04-05T16:24:25.105Z,43.73
2019-04-05T16:26:53.508Z,39.88
2019-04-05T16:29:21.909Z,39.15
2019-04-05T16:31:50.565Z,39.55
2019-04-05T16:34:18.970Z,38.50
2019-04-05T16:36:47.378Z,41.50
2019-04-05T16:39:17.432Z,39.38
2019-04-05T16:41:45.844Z,36.55
2019-04-05T16:44:14.291Z,42.60
2019-04-05T16:46:42.695Z,41.58
2019-04-05T16:49:11.108Z,42.65
2019-04-05T16:51:39.510Z,42.20
2019-04-05T16:54:07.921Z,41.55
2019-04-05T16:56:36.345Z,40.20
2019-04-05T16:59:05.108Z,42.80
2019-04-05T17:01:33.524Z,39.20
2019-04-05T17:04:01.934Z,45.60
2019-04-05T17:06:30.331Z,42.17
2019-04-05T17:08:58.745Z,37.35
2019-04-05T17:11:27.131Z,41.10
2019-04-05T17:13:59.413Z,41.35
2019-04-05T17:16:25.654Z,43.98
2019-04-05T17:18:54.099Z,46.37
2019-04-05T17:21:22.519Z,41.88
2019-04-05T17:23:50.929Z,44.60
2019-04-05T17:26:19.545Z,42.55
2019-04-05T17:28:47.957Z,45.63
2019-04-05T17:31:16.397Z,41.77
2019-04-05T17:33:44.793Z,47.95
2019-04-05T17:36:13.204Z,47.23
2019-04-05T17:38:41.633Z,50.63
2019-04-05T17:41:10.049Z,39.80
2019-04-05T17:43:38.464Z,47.83
2019-04-05T17:46:06.865Z,54.03
2019-04-05T17:48:35.269Z,42.33
2019-04-05T17:51:03.677Z,46.88
2019-04-05T17:53:32.161Z,44.93
2019-04-05T17:56:01.185Z,47.67
2019-04-05T17:58:31.481Z,46.28
2019-04-05T18:01:01.160Z,52.33
2019-04-05T18:03:29.555Z,55.10
2019-04-05T18:05:57.950Z,51.85
2019-04-05T18:08:26.344Z,55.67
2019-04-05T18:10:55.006Z,58.60
2019-04-05T18:13:23.379Z,56.48
2019-04-05T18:15:53.080Z,52.73
2019-04-05T18:18:21.620Z,57.15
2019-04-05T18:20:50.019Z,54.73
2019-04-05T18:23:25.063Z,52.17
2019-04-05T18:25:48.866Z,54.70
2019-04-05T18:28:17.315Z,57.17
2019-04-05T18:30:46.456Z,53.68
2019-04-05T18:33:14.851Z,53.35
2019-04-05T18:35:43.253Z,48.63
2019-04-05T18:38:11.643Z,50.90
2019-04-05T18:40:40.625Z,51.10
2019-04-05T18:43:09.183Z,50.60
2019-04-05T18:45:37.583Z,52.15
2019-04-05T18:48:06.310Z,43.35
2019-04-05T18:50:34.699Z,48.50
2019-04-05T18:53:03.088Z,52.48
2019-04-05T18:55:32.312Z,53.60
2019-04-05T18:58:00.711Z,53.78
2019-04-05T19:00:29.127Z,53.68
2019-04-05T19:02:57.512Z,57.95
2019-04-05T19:05:25.913Z,54.00
2019-04-05T19:07:54.342Z,54.75
2019-04-05T19:10:36.439Z,54.73
2019-04-05T19:12:54.471Z,54.65
2019-04-05T19:15:22.945Z,53.98
2019-04-05T19:17:51.345Z,58.40
2019-04-05T19:20:19.763Z,58.17
2019-04-05T19:22:48.171Z,55.67
2019-04-05T19:25:16.569Z,52.85
2019-04-05T19:27:45.077Z,56.20
2019-04-05T19:50:15.912Z,54.88
2019-04-05T19:52:44.329Z,56.02
2019-04-05T19:55:12.785Z,56.90
2019-04-05T19:57:41.217Z,55.12
2019-04-05T20:00:09.685Z,52.80
2019-04-05T20:02:38.109Z,52.13
2019-04-05T20:05:08.045Z,58.28
2019-04-05T20:07:36.458Z,59.60
2019-04-05T20:10:05.881Z,54.73
2019-04-05T20:12:34.302Z,55.15
2019-04-05T20:15:02.700Z,51.88
2019-04-05T20:17:31.104Z,60.80
2019-04-05T20:19:59.487Z,55.88
2019-04-05T20:22:27.904Z,58.60
2019-04-05T20:24:56.288Z,45.92
2019-04-05T20:27:24.796Z,55.40
2019-04-05T20:29:53.232Z,56.13
2019-04-05T20:32:21.645Z,58.35
2019-04-05T20:34:50.045Z,56.85
2019-04-05T20:37:18.452Z,49.55
2019-04-05T20:39:46.839Z,55.17
2019-04-05T20:42:15.244Z,56.75
2019-04-05T20:44:43.640Z,59.00
2019-04-05T20:47:12.028Z,49.67
2019-04-05T20:49:40.504Z,53.73
2019-04-05T20:52:08.896Z,56.05
2019-04-05T20:54:37.290Z,55.00
2019-04-05T20:57:05.685Z,54.80
2019-04-05T20:59:34.085Z,58.85
2019-04-05T21:02:03.342Z,55.58
2019-04-05T21:04:31.808Z,50.43
2019-04-05T21:07:00.194Z,49.90
2019-04-05T21:09:28.585Z,44.70
2019-04-05T21:11:56.972Z,50.75
2019-04-05T21:14:25.411Z,51.45
2019-04-05T21:16:53.796Z,49.45
2019-04-05T21:19:22.192Z,58.63
2019-04-05T21:21:52.132Z,55.43
2019-04-05T21:24:20.616Z,52.35
2019-04-05T21:26:49.013Z,60.23
2019-04-05T21:29:17.640Z,63.70
2019-04-05T21:31:46.098Z,65.62
2019-04-05T21:34:14.512Z,65.92
2019-04-05T21:36:44.541Z,69.77
2019-04-05T21:39:13.180Z,51.73
2019-04-05T21:41:41.572Z,60.00
2019-04-05T21:44:10.200Z,60.90
2019-04-05T21:46:38.605Z,55.90
2019-04-05T21:49:07.004Z,52.15
2019-04-05T21:51:35.392Z,57.55
2019-04-05T21:54:03.796Z,60.00
2019-04-05T21:56:32.233Z,55.00
2019-04-05T21:59:00.682Z,55.60
2019-04-05T22:01:29.147Z,61.50
2019-04-05T22:03:57.563Z,55.67
2019-04-05T22:06:25.954Z,49.98
2019-04-05T22:08:54.344Z,56.18
2019-04-05T22:11:22.727Z,55.78
2019-04-05T22:13:51.190Z,63.10
2019-04-05T22:16:19.675Z,47.27
2019-04-05T22:18:48.086Z,50.78
2019-04-05T22:21:16.471Z,55.83
2019-04-05T22:23:44.850Z,56.18
2019-04-05T22:26:13.249Z,64.12
2019-04-05T22:28:41.629Z,61.98
2019-04-05T22:31:10.038Z,59.90
2019-04-05T22:33:38.432Z,62.03
2019-04-05T22:36:06.828Z,59.63
2019-04-05T22:38:35.220Z,56.20
2019-04-05T22:41:03.854Z,57.38
2019-04-05T22:43:32.243Z,61.10
2019-04-05T22:46:00.646Z,62.40
2019-04-05T22:48:29.120Z,56.68
2019-04-05T22:50:57.752Z,56.60
2019-04-05T22:53:26.155Z,55.52
2019-04-05T22:55:54.557Z,61.05
2019-04-05T22:58:22.976Z,64.72
2019-04-05T23:00:51.368Z,60.08
2019-04-05T23:03:19.760Z,58.68
2019-04-05T23:05:48.164Z,52.25
2019-04-05T23:08:16.548Z,62.62
2019-04-05T23:10:44.949Z,57.78
2019-04-05T23:13:13.340Z,59.20
2019-04-05T23:15:41.742Z,54.80
2019-04-05T23:18:10.147Z,58.80
2019-04-05T23:20:38.598Z,58.63
2019-04-05T23:23:06.993Z,55.00
2019-04-05T23:25:35.396Z,61.98
2019-04-05T23:28:03.770Z,63.40
2019-04-05T23:30:33.169Z,62.23
2019-04-05T23:33:01.548Z,55.90
2019-04-05T23:35:29.954Z,55.52
2019-04-05T23:37:58.364Z,56.05
2019-04-05T23:40:26.755Z,56.55
2019-04-05T23:42:55.145Z,55.88
2019-04-05T23:45:23.541Z,52.48
2019-04-05T23:47:51.920Z,56.48
2019-04-05T23:50:20.347Z,56.13
2019-04-05T23:52:48.731Z,62.90
2019-04-05T23:55:17.144Z,57.65
2019-04-05T23:57:45.523Z,59.53
